sensor_id;sensor_type;location;lat;lon;timestamp;P1;durP1;ratioP1;P2;durP2;ratioP2
9117;SDS011;4594;50.994;7.126;2022-12-18T00:01:19;12.80;;;8.30;;
9117;SDS011;4594;50.994;7.126;2022-12-18T00:03:56;9.25;;;8.10;;
9117;SDS011;4594;50.994;7.126;2022-12-18T00:06:23;13.68;;;8.38;;
9117;SDS011;4594;50.994;7.126;2022-12-18T00:08:52;10.68;;;8.45;;
9117;SDS011;4594;50.994;7.126;2022-12-18T00:11:21;11.55;;;8.68;;
9117;SDS011;4594;50.994;7.126;2022-12-18T00:13:50;12.98;;;7.95;;
9117;SDS011;4594;50.994;7.126;2022-12-18T00:16:19;11.48;;;8.20;;
9117;SDS011;4594;50.994;7.126;2022-12-18T00:18:48;14.52;;;8.65;;
9117;SDS011;4594;50.994;7.126;2022-12-18T00:21:16;13.77;;;8.75;;
9117;SDS011;4594;50.994;7.126;2022-12-18T00:23:43;11.30;;;7.82;;
9117;SDS011;4594;50.994;7.126;2022-12-18T00:26:11;10.60;;;7.85;;
9117;SDS011;4594;50.994;7.126;2022-12-18T00:28:41;10.57;;;7.78;;
9117;SDS011;4594;50.994;7.126;2022-12-18T00:31:09;10.85;;;7.65;;
9117;SDS011;4594;50.994;7.126;2022-12-18T00:33:38;10.95;;;8.02;;
9117;SDS011;4594;50.994;7.126;2022-12-18T00:36:05;13.37;;;8.63;;
9117;SDS011;4594;50.994;7.126;2022-12-18T00:38:34;12.07;;;8.52;;
9117;SDS011;4594;50.994;7.126;2022-12-18T00:41:01;12.13;;;8.27;;
9117;SDS011;4594;50.994;7.126;2022-12-18T00:43:28;11.32;;;8.18;;
9117;SDS011;4594;50.994;7.126;2022-12-18T00:45:53;16.80;;;9.13;;
9117;SDS011;4594;50.994;7.126;2022-12-18T00:48:19;12.83;;;7.87;;
9117;SDS011;4594;50.994;7.126;2022-12-18T00:50:45;11.13;;;8.13;;
9117;SDS011;4594;50.994;7.126;2022-12-18T00:53:14;12.23;;;8.70;;
9117;SDS011;4594;50.994;7.126;2022-12-18T00:55:40;13.27;;;8.18;;
9117;SDS011;4594;50.994;7.126;2022-12-18T00:58:07;11.98;;;8.20;;
9117;SDS011;4594;50.994;7.126;2022-12-18T01:00:35;10.35;;;7.65;;
9117;SDS011;4594;50.994;7.126;2022-12-18T01:03:01;10.77;;;7.82;;
9117;SDS011;4594;50.994;7.126;2022-12-18T01:05:27;10.43;;;8.30;;
9117;SDS011;4594;50.994;7.126;2022-12-18T01:07:53;9.77;;;7.47;;
9117;SDS011;4594;50.994;7.126;2022-12-18T01:10:20;13.13;;;8.43;;
9117;SDS011;4594;50.994;7.126;2022-12-18T01:12:46;12.47;;;8.60;;
9117;SDS011;4594;50.994;7.126;2022-12-18T01:15:12;13.53;;;8.60;;
9117;SDS011;4594;50.994;7.126;2022-12-18T01:17:39;10.70;;;7.70;;
9117;SDS011;4594;50.994;7.126;2022-12-18T01:20:06;14.65;;;8.68;;
9117;SDS011;4594;50.994;7.126;2022-12-18T01:22:33;10.00;;;7.50;;
9117;SDS011;4594;50.994;7.126;2022-12-18T01:25:00;14.20;;;8.02;;
9117;SDS011;4594;50.994;7.126;2022-12-18T01:27:27;11.80;;;8.23;;
9117;SDS011;4594;50.994;7.126;2022-12-18T01:29:52;9.07;;;7.70;;
9117;SDS011;4594;50.994;7.126;2022-12-18T01:32:18;10.10;;;8.10;;
9117;SDS011;4594;50.994;7.126;2022-12-18T01:34:44;11.75;;;7.63;;
9117;SDS011;4594;50.994;7.126;2022-12-18T01:37:10;11.83;;;7.67;;
9117;SDS011;4594;50.994;7.126;2022-12-18T01:39:36;12.57;;;8.43;;
9117;SDS011;4594;50.994;7.126;2022-12-18T01:42:10;11.93;;;8.20;;
9117;SDS011;4594;50.994;7.126;2022-12-18T01:47:38;9.38;;;7.05;;
9117;SDS011;4594;50.994;7.126;2022-12-18T01:53:03;10.20;;;7.47;;
9117;SDS011;4594;50.994;7.126;2022-12-18T01:55:45;9.43;;;7.68;;
9117;SDS011;4594;50.994;7.126;2022-12-18T01:58:17;11.32;;;8.07;;
9117;SDS011;4594;50.994;7.126;2022-12-18T02:00:47;10.38;;;7.65;;
9117;SDS011;4594;50.994;7.126;2022-12-18T02:03:13;12.63;;;7.40;;
9117;SDS011;4594;50.994;7.126;2022-12-18T02:06:13;12.83;;;8.40;;
9117;SDS011;4594;50.994;7.126;2022-12-18T02:08:57;9.70;;;7.50;;
9117;SDS011;4594;50.994;7.126;2022-12-18T02:19:39;10.65;;;7.43;;
9117;SDS011;4594;50.994;7.126;2022-12-18T02:22:43;8.23;;;7.10;;
9117;SDS011;4594;50.994;7.126;2022-12-18T02:27:59;9.52;;;7.25;;
9117;SDS011;4594;50.994;7.126;2022-12-18T02:30:29;8.25;;;7.32;;
9117;SDS011;4594;50.994;7.126;2022-12-18T02:32:59;9.02;;;6.93;;
9117;SDS011;4594;50.994;7.126;2022-12-18T02:35:30;9.55;;;6.97;;
9117;SDS011;4594;50.994;7.126;2022-12-18T02:37:59;7.18;;;6.53;;
9117;SDS011;4594;50.994;7.126;2022-12-18T02:40:28;9.95;;;7.22;;
9117;SDS011;4594;50.994;7.126;2022-12-18T02:42:55;8.85;;;7.32;;
9117;SDS011;4594;50.994;7.126;2022-12-18T02:45:27;11.65;;;8.13;;
9117;SDS011;4594;50.994;7.126;2022-12-18T02:47:53;10.10;;;6.97;;
9117;SDS011;4594;50.994;7.126;2022-12-18T02:50:22;8.70;;;7.13;;
9117;SDS011;4594;50.994;7.126;2022-12-18T02:53:04;7.90;;;6.68;;
9117;SDS011;4594;50.994;7.126;2022-12-18T02:58:30;8.30;;;7.25;;
9117;SDS011;4594;50.994;7.126;2022-12-18T03:01:30;8.30;;;6.88;;
9117;SDS011;4594;50.994;7.126;2022-12-18T03:06:54;9.05;;;7.43;;
9117;SDS011;4594;50.994;7.126;2022-12-18T03:09:29;10.48;;;7.50;;
9117;SDS011;4594;50.994;7.126;2022-12-18T03:12:04;8.43;;;7.18;;
9117;SDS011;4594;50.994;7.126;2022-12-18T03:14:59;7.28;;;6.45;;
9117;SDS011;4594;50.994;7.126;2022-12-18T03:17:52;9.55;;;7.20;;
9117;SDS011;4594;50.994;7.126;2022-12-18T03:20:26;13.70;;;7.35;;
9117;SDS011;4594;50.994;7.126;2022-12-18T03:22:59;7.43;;;6.55;;
9117;SDS011;4594;50.994;7.126;2022-12-18T03:25:35;10.52;;;6.50;;
9117;SDS011;4594;50.994;7.126;2022-12-18T03:28:06;9.50;;;7.28;;
9117;SDS011;4594;50.994;7.126;2022-12-18T03:30:40;8.70;;;6.68;;
9117;SDS011;4594;50.994;7.126;2022-12-18T03:33:12;8.38;;;6.50;;
9117;SDS011;4594;50.994;7.126;2022-12-18T03:35:43;7.45;;;6.20;;
9117;SDS011;4594;50.994;7.126;2022-12-18T03:38:09;9.02;;;6.90;;
9117;SDS011;4594;50.994;7.126;2022-12-18T03:40:43;7.63;;;6.47;;
9117;SDS011;4594;50.994;7.126;2022-12-18T03:43:49;7.85;;;6.80;;
9117;SDS011;4594;50.994;7.126;2022-12-18T03:46:47;8.05;;;6.68;;
9117;SDS011;4594;50.994;7.126;2022-12-18T03:49:56;6.82;;;6.00;;
9117;SDS011;4594;50.994;7.126;2022-12-18T03:52:45;6.65;;;5.93;;
9117;SDS011;4594;50.994;7.126;2022-12-18T03:55:22;7.90;;;7.10;;
9117;SDS011;4594;50.994;7.126;2022-12-18T03:57:52;8.15;;;5.60;;
9117;SDS011;4594;50.994;7.126;2022-12-18T04:00:19;10.23;;;6.72;;
9117;SDS011;4594;50.994;7.126;2022-12-18T04:02:48;7.38;;;5.82;;
9117;SDS011;4594;50.994;7.126;2022-12-18T04:05:18;7.18;;;6.40;;
9117;SDS011;4594;50.994;7.126;2022-12-18T04:07:46;7.43;;;6.10;;
9117;SDS011;4594;50.994;7.126;2022-12-18T04:10:15;6.97;;;6.38;;
9117;SDS011;4594;50.994;7.126;2022-12-18T04:12:41;7.68;;;6.05;;
9117;SDS011;4594;50.994;7.126;2022-12-18T04:15:08;6.30;;;5.70;;
9117;SDS011;4594;50.994;7.126;2022-12-18T04:17:35;6.75;;;6.00;;
9117;SDS011;4594;50.994;7.126;2022-12-18T04:20:00;7.53;;;6.30;;
9117;SDS011;4594;50.994;7.126;2022-12-18T04:22:26;9.07;;;6.33;;
9117;SDS011;4594;50.994;7.126;2022-12-18T04:24:52;7.97;;;6.00;;
9117;SDS011;4594;50.994;7.126;2022-12-18T04:27:18;7.07;;;6.37;;
9117;SDS011;4594;50.994;7.126;2022-12-18T04:29:43;6.70;;;5.80;;
9117;SDS011;4594;50.994;7.126;2022-12-18T04:32:09;7.10;;;5.83;;
9117;SDS011;4594;50.994;7.126;2022-12-18T04:34:35;8.90;;;6.77;;
9117;SDS011;4594;50.994;7.126;2022-12-18T04:37:00;8.07;;;6.00;;
9117;SDS011;4594;50.994;7.126;2022-12-18T04:39:26;6.67;;;6.00;;
9117;SDS011;4594;50.994;7.126;2022-12-18T04:41:52;7.03;;;6.43;;
9117;SDS011;4594;50.994;7.126;2022-12-18T04:44:18;7.80;;;6.43;;
9117;SDS011;4594;50.994;7.126;2022-12-18T04:46:43;7.07;;;6.27;;
9117;SDS011;4594;50.994;7.126;2022-12-18T04:49:09;7.17;;;6.30;;
9117;SDS011;4594;50.994;7.126;2022-12-18T04:51:35;7.60;;;6.00;;
9117;SDS011;4594;50.994;7.126;2022-12-18T04:54:02;7.97;;;6.55;;
9117;SDS011;4594;50.994;7.126;2022-12-18T04:56:28;8.20;;;6.07;;
9117;SDS011;4594;50.994;7.126;2022-12-18T04:58:56;8.32;;;6.45;;
9117;SDS011;4594;50.994;7.126;2022-12-18T05:01:21;7.17;;;6.37;;
9117;SDS011;4594;50.994;7.126;2022-12-18T05:03:47;7.20;;;6.37;;
9117;SDS011;4594;50.994;7.126;2022-12-18T05:06:13;9.83;;;6.37;;
9117;SDS011;4594;50.994;7.126;2022-12-18T05:08:39;7.18;;;6.45;;
9117;SDS011;4594;50.994;7.126;2022-12-18T05:11:09;8.30;;;6.50;;
9117;SDS011;4594;50.994;7.126;2022-12-18T05:13:38;6.95;;;6.15;;
9117;SDS011;4594;50.994;7.126;2022-12-18T05:16:04;7.50;;;6.80;;
9117;SDS011;4594;50.994;7.126;2022-12-18T05:18:31;7.38;;;6.47;;
9117;SDS011;4594;50.994;7.126;2022-12-18T05:20:57;7.60;;;6.47;;
9117;SDS011;4594;50.994;7.126;2022-12-18T05:23:23;10.63;;;6.67;;
9117;SDS011;4594;50.994;7.126;2022-12-18T05:25:57;8.15;;;6.78;;
9117;SDS011;4594;50.994;7.126;2022-12-18T05:28:26;7.03;;;6.20;;
9117;SDS011;4594;50.994;7.126;2022-12-18T05:30:55;9.70;;;7.25;;
9117;SDS011;4594;50.994;7.126;2022-12-18T05:33:24;9.25;;;6.80;;
9117;SDS011;4594;50.994;7.126;2022-12-18T05:35:52;7.68;;;6.40;;
9117;SDS011;4594;50.994;7.126;2022-12-18T05:38:28;7.88;;;6.25;;
9117;SDS011;4594;50.994;7.126;2022-12-18T05:40:56;7.40;;;6.68;;
9117;SDS011;4594;50.994;7.126;2022-12-18T05:43:22;9.65;;;6.78;;
9117;SDS011;4594;50.994;7.126;2022-12-18T05:45:50;9.40;;;6.57;;
9117;SDS011;4594;50.994;7.126;2022-12-18T05:48:17;8.40;;;6.55;;
9117;SDS011;4594;50.994;7.126;2022-12-18T05:50:45;9.88;;;7.85;;
9117;SDS011;4594;50.994;7.126;2022-12-18T05:53:13;11.82;;;7.50;;
9117;SDS011;4594;50.994;7.126;2022-12-18T05:55:42;8.73;;;6.93;;
9117;SDS011;4594;50.994;7.126;2022-12-18T05:58:09;13.13;;;10.38;;
9117;SDS011;4594;50.994;7.126;2022-12-18T06:00:38;12.57;;;9.52;;
9117;SDS011;4594;50.994;7.126;2022-12-18T06:03:09;10.10;;;8.00;;
9117;SDS011;4594;50.994;7.126;2022-12-18T06:05:37;11.20;;;8.90;;
9117;SDS011;4594;50.994;7.126;2022-12-18T06:08:08;8.40;;;7.18;;
9117;SDS011;4594;50.994;7.126;2022-12-18T06:10:34;8.65;;;7.28;;
9117;SDS011;4594;50.994;7.126;2022-12-18T06:13:00;8.57;;;7.53;;
9117;SDS011;4594;50.994;7.126;2022-12-18T06:15:26;9.13;;;7.30;;
9117;SDS011;4594;50.994;7.126;2022-12-18T06:17:52;9.63;;;7.23;;
9117;SDS011;4594;50.994;7.126;2022-12-18T06:20:17;10.37;;;8.13;;
9117;SDS011;4594;50.994;7.126;2022-12-18T06:22:44;7.68;;;6.70;;
9117;SDS011;4594;50.994;7.126;2022-12-18T06:25:09;9.77;;;7.70;;
9117;SDS011;4594;50.994;7.126;2022-12-18T06:27:35;9.73;;;7.20;;
9117;SDS011;4594;50.994;7.126;2022-12-18T06:30:01;10.50;;;7.73;;
9117;SDS011;4594;50.994;7.126;2022-12-18T06:32:28;9.38;;;7.50;;
9117;SDS011;4594;50.994;7.126;2022-12-18T06:34:54;8.57;;;7.10;;
9117;SDS011;4594;50.994;7.126;2022-12-18T06:37:20;9.63;;;8.15;;
9117;SDS011;4594;50.994;7.126;2022-12-18T06:39:47;8.98;;;7.32;;
9117;SDS011;4594;50.994;7.126;2022-12-18T06:42:12;9.60;;;7.30;;
9117;SDS011;4594;50.994;7.126;2022-12-18T06:44:38;9.30;;;7.73;;
9117;SDS011;4594;50.994;7.126;2022-12-18T06:47:03;8.83;;;7.27;;
9117;SDS011;4594;50.994;7.126;2022-12-18T06:49:29;10.60;;;7.97;;
9117;SDS011;4594;50.994;7.126;2022-12-18T06:51:55;15.63;;;8.77;;
9117;SDS011;4594;50.994;7.126;2022-12-18T06:54:20;10.13;;;8.10;;
9117;SDS011;4594;50.994;7.126;2022-12-18T06:56:46;11.20;;;8.23;;
9117;SDS011;4594;50.994;7.126;2022-12-18T06:59:12;14.60;;;8.23;;
9117;SDS011;4594;50.994;7.126;2022-12-18T07:01:39;12.30;;;8.05;;
9117;SDS011;4594;50.994;7.126;2022-12-18T07:04:05;12.35;;;8.20;;
9117;SDS011;4594;50.994;7.126;2022-12-18T07:06:31;11.70;;;7.95;;
9117;SDS011;4594;50.994;7.126;2022-12-18T07:08:57;11.70;;;7.87;;
9117;SDS011;4594;50.994;7.126;2022-12-18T07:11:22;10.33;;;7.80;;
9117;SDS011;4594;50.994;7.126;2022-12-18T07:13:49;10.65;;;7.75;;
9117;SDS011;4594;50.994;7.126;2022-12-18T07:16:19;12.30;;;8.23;;
9117;SDS011;4594;50.994;7.126;2022-12-18T07:18:46;9.50;;;7.57;;
9117;SDS011;4594;50.994;7.126;2022-12-18T07:21:13;12.03;;;8.40;;
9117;SDS011;4594;50.994;7.126;2022-12-18T07:23:41;10.35;;;7.53;;
9117;SDS011;4594;50.994;7.126;2022-12-18T07:26:11;12.57;;;8.07;;
9117;SDS011;4594;50.994;7.126;2022-12-18T07:28:38;8.93;;;7.55;;
9117;SDS011;4594;50.994;7.126;2022-12-18T07:31:06;11.85;;;7.68;;
9117;SDS011;4594;50.994;7.126;2022-12-18T07:33:41;11.35;;;8.10;;
9117;SDS011;4594;50.994;7.126;2022-12-18T07:36:10;10.13;;;7.88;;
9117;SDS011;4594;50.994;7.126;2022-12-18T07:38:37;10.27;;;8.35;;
9117;SDS011;4594;50.994;7.126;2022-12-18T07:41:07;10.73;;;8.10;;
9117;SDS011;4594;50.994;7.126;2022-12-18T07:43:37;9.02;;;7.35;;
9117;SDS011;4594;50.994;7.126;2022-12-18T07:46:05;12.27;;;8.55;;
9117;SDS011;4594;50.994;7.126;2022-12-18T07:48:33;11.45;;;7.97;;
9117;SDS011;4594;50.994;7.126;2022-12-18T07:50:59;9.73;;;7.97;;
9117;SDS011;4594;50.994;7.126;2022-12-18T07:53:27;11.95;;;8.18;;
9117;SDS011;4594;50.994;7.126;2022-12-18T07:55:56;12.10;;;7.77;;
9117;SDS011;4594;50.994;7.126;2022-12-18T07:58:28;12.40;;;7.45;;
9117;SDS011;4594;50.994;7.126;2022-12-18T08:00:54;11.63;;;8.33;;
9117;SDS011;4594;50.994;7.126;2022-12-18T08:03:35;12.27;;;8.00;;
9117;SDS011;4594;50.994;7.126;2022-12-18T08:06:03;12.18;;;7.82;;
9117;SDS011;4594;50.994;7.126;2022-12-18T08:08:32;10.75;;;7.70;;
9117;SDS011;4594;50.994;7.126;2022-12-18T08:10:58;8.63;;;6.93;;
9117;SDS011;4594;50.994;7.126;2022-12-18T08:13:24;9.70;;;7.17;;
9117;SDS011;4594;50.994;7.126;2022-12-18T08:16:01;10.60;;;7.40;;
9117;SDS011;4594;50.994;7.126;2022-12-18T08:18:32;9.20;;;7.17;;
9117;SDS011;4594;50.994;7.126;2022-12-18T08:21:07;12.20;;;7.80;;
9117;SDS011;4594;50.994;7.126;2022-12-18T08:23:38;10.80;;;7.47;;
9117;SDS011;4594;50.994;7.126;2022-12-18T08:26:04;8.43;;;6.70;;
9117;SDS011;4594;50.994;7.126;2022-12-18T08:28:30;9.20;;;6.80;;
9117;SDS011;4594;50.994;7.126;2022-12-18T08:30:56;11.27;;;7.00;;
9117;SDS011;4594;50.994;7.126;2022-12-18T08:33:22;12.77;;;7.63;;
9117;SDS011;4594;50.994;7.126;2022-12-18T08:35:48;8.73;;;6.70;;
9117;SDS011;4594;50.994;7.126;2022-12-18T08:38:14;9.37;;;7.00;;
9117;SDS011;4594;50.994;7.126;2022-12-18T08:40:40;9.23;;;6.93;;
9117;SDS011;4594;50.994;7.126;2022-12-18T08:43:05;10.03;;;6.80;;
9117;SDS011;4594;50.994;7.126;2022-12-18T08:45:53;9.23;;;6.63;;
9117;SDS011;4594;50.994;7.126;2022-12-18T08:48:19;10.30;;;7.33;;
9117;SDS011;4594;50.994;7.126;2022-12-18T08:50:53;8.07;;;6.87;;
9117;SDS011;4594;50.994;7.126;2022-12-18T08:53:21;9.90;;;6.60;;
9117;SDS011;4594;50.994;7.126;2022-12-18T08:55:46;9.27;;;6.90;;
9117;SDS011;4594;50.994;7.126;2022-12-18T08:58:12;9.47;;;7.17;;
9117;SDS011;4594;50.994;7.126;2022-12-18T09:00:37;9.00;;;7.27;;
9117;SDS011;4594;50.994;7.126;2022-12-18T09:03:03;8.60;;;7.10;;
9117;SDS011;4594;50.994;7.126;2022-12-18T09:05:29;10.27;;;7.33;;
9117;SDS011;4594;50.994;7.126;2022-12-18T09:07:55;10.27;;;7.50;;
9117;SDS011;4594;50.994;7.126;2022-12-18T09:10:21;12.70;;;7.07;;
9117;SDS011;4594;50.994;7.126;2022-12-18T09:12:47;10.60;;;7.27;;
9117;SDS011;4594;50.994;7.126;2022-12-18T09:15:12;10.83;;;7.20;;
9117;SDS011;4594;50.994;7.126;2022-12-18T09:17:38;8.83;;;7.37;;
9117;SDS011;4594;50.994;7.126;2022-12-18T09:20:04;9.60;;;6.80;;
9117;SDS011;4594;50.994;7.126;2022-12-18T09:22:30;9.63;;;7.27;;
9117;SDS011;4594;50.994;7.126;2022-12-18T09:24:56;9.47;;;7.03;;
9117;SDS011;4594;50.994;7.126;2022-12-18T09:27:22;9.97;;;6.93;;
9117;SDS011;4594;50.994;7.126;2022-12-18T09:29:47;10.57;;;7.03;;
9117;SDS011;4594;50.994;7.126;2022-12-18T09:32:13;11.27;;;7.20;;
9117;SDS011;4594;50.994;7.126;2022-12-18T09:34:39;10.37;;;7.40;;
9117;SDS011;4594;50.994;7.126;2022-12-18T09:37:04;9.83;;;7.03;;
9117;SDS011;4594;50.994;7.126;2022-12-18T09:39:30;9.50;;;6.77;;
9117;SDS011;4594;50.994;7.126;2022-12-18T09:41:57;9.23;;;6.80;;
9117;SDS011;4594;50.994;7.126;2022-12-18T09:44:31;9.63;;;7.03;;
9117;SDS011;4594;50.994;7.126;2022-12-18T09:47:17;8.97;;;6.70;;
9117;SDS011;4594;50.994;7.126;2022-12-18T09:50:37;11.40;;;7.13;;
9117;SDS011;4594;50.994;7.126;2022-12-18T09:52:55;12.00;;;6.73;;
9117;SDS011;4594;50.994;7.126;2022-12-18T09:55:30;10.00;;;6.97;;
9117;SDS011;4594;50.994;7.126;2022-12-18T09:58:24;11.10;;;7.30;;
9117;SDS011;4594;50.994;7.126;2022-12-18T10:01:37;13.97;;;7.73;;
9117;SDS011;4594;50.994;7.126;2022-12-18T10:03:57;8.90;;;6.80;;
9117;SDS011;4594;50.994;7.126;2022-12-18T10:06:35;11.20;;;6.70;;
9117;SDS011;4594;50.994;7.126;2022-12-18T10:09:37;9.87;;;6.73;;
9117;SDS011;4594;50.994;7.126;2022-12-18T10:21:14;8.80;;;6.83;;
9117;SDS011;4594;50.994;7.126;2022-12-18T10:26:40;10.33;;;6.80;;
9117;SDS011;4594;50.994;7.126;2022-12-18T10:29:10;12.07;;;7.03;;
9117;SDS011;4594;50.994;7.126;2022-12-18T10:31:40;10.30;;;7.13;;
9117;SDS011;4594;50.994;7.126;2022-12-18T10:34:10;8.93;;;6.83;;
9117;SDS011;4594;50.994;7.126;2022-12-18T10:36:37;9.33;;;6.80;;
9117;SDS011;4594;50.994;7.126;2022-12-18T10:41:47;11.43;;;7.53;;
9117;SDS011;4594;50.994;7.126;2022-12-18T10:44:20;11.07;;;7.87;;
9117;SDS011;4594;50.994;7.126;2022-12-18T10:46:48;8.83;;;7.00;;
9117;SDS011;4594;50.994;7.126;2022-12-18T10:49:28;8.97;;;6.73;;
9117;SDS011;4594;50.994;7.126;2022-12-18T10:54:54;8.90;;;6.53;;
9117;SDS011;4594;50.994;7.126;2022-12-18T11:00:23;11.27;;;7.23;;
9117;SDS011;4594;50.994;7.126;2022-12-18T11:02:49;10.10;;;7.10;;
9117;SDS011;4594;50.994;7.126;2022-12-18T11:05:29;9.53;;;6.80;;
9117;SDS011;4594;50.994;7.126;2022-12-18T11:07:58;10.73;;;6.93;;
9117;SDS011;4594;50.994;7.126;2022-12-18T11:10:26;11.93;;;8.17;;
9117;SDS011;4594;50.994;7.126;2022-12-18T11:13:17;9.03;;;7.07;;
9117;SDS011;4594;50.994;7.126;2022-12-18T11:15:46;9.63;;;7.17;;
9117;SDS011;4594;50.994;7.126;2022-12-18T11:20:58;9.97;;;7.10;;
9117;SDS011;4594;50.994;7.126;2022-12-18T11:23:32;11.30;;;7.53;;
9117;SDS011;4594;50.994;7.126;2022-12-18T11:26:00;11.20;;;7.20;;
9117;SDS011;4594;50.994;7.126;2022-12-18T11:31:35;9.40;;;7.40;;
9117;SDS011;4594;50.994;7.126;2022-12-18T11:34:04;12.50;;;8.20;;
9117;SDS011;4594;50.994;7.126;2022-12-18T11:36:55;11.50;;;7.60;;
9117;SDS011;4594;50.994;7.126;2022-12-18T11:39:29;11.47;;;8.07;;
9117;SDS011;4594;50.994;7.126;2022-12-18T11:42:23;13.47;;;8.63;;
9117;SDS011;4594;50.994;7.126;2022-12-18T11:47:52;12.50;;;8.43;;
9117;SDS011;4594;50.994;7.126;2022-12-18T11:50:53;16.37;;;11.10;;
9117;SDS011;4594;50.994;7.126;2022-12-18T11:53:27;20.20;;;10.40;;
9117;SDS011;4594;50.994;7.126;2022-12-18T11:59:40;15.87;;;9.40;;
9117;SDS011;4594;50.994;7.126;2022-12-18T12:01:51;13.20;;;8.90;;
9117;SDS011;4594;50.994;7.126;2022-12-18T12:04:45;10.77;;;8.00;;
9117;SDS011;4594;50.994;7.126;2022-12-18T12:10:52;12.40;;;8.67;;
9117;SDS011;4594;50.994;7.126;2022-12-18T12:13:39;18.40;;;10.07;;
9117;SDS011;4594;50.994;7.126;2022-12-18T12:39:01;14.03;;;10.07;;
9117;SDS011;4594;50.994;7.126;2022-12-18T12:41:36;17.87;;;10.50;;
9117;SDS011;4594;50.994;7.126;2022-12-18T12:44:25;18.93;;;10.90;;
9117;SDS011;4594;50.994;7.126;2022-12-18T12:46:56;15.57;;;11.13;;
9117;SDS011;4594;50.994;7.126;2022-12-18T12:49:29;19.43;;;11.10;;
9117;SDS011;4594;50.994;7.126;2022-12-18T12:52:10;19.73;;;10.97;;
9117;SDS011;4594;50.994;7.126;2022-12-18T12:54:42;17.50;;;11.03;;
9117;SDS011;4594;50.994;7.126;2022-12-18T13:07:59;19.63;;;12.20;;
9117;SDS011;4594;50.994;7.126;2022-12-18T13:10:33;20.73;;;11.93;;
9117;SDS011;4594;50.994;7.126;2022-12-18T13:13:05;19.23;;;12.33;;
9117;SDS011;4594;50.994;7.126;2022-12-18T13:20:44;20.07;;;12.17;;
9117;SDS011;4594;50.994;7.126;2022-12-18T13:23:31;20.30;;;11.77;;
9117;SDS011;4594;50.994;7.126;2022-12-18T13:30:59;23.33;;;11.87;;
9117;SDS011;4594;50.994;7.126;2022-12-18T13:33:36;17.93;;;11.20;;
9117;SDS011;4594;50.994;7.126;2022-12-18T13:36:31;18.00;;;11.80;;
9117;SDS011;4594;50.994;7.126;2022-12-18T13:41:39;22.30;;;12.83;;
9117;SDS011;4594;50.994;7.126;2022-12-18T13:44:54;19.50;;;11.57;;
9117;SDS011;4594;50.994;7.126;2022-12-18T13:47:24;17.17;;;10.50;;
9117;SDS011;4594;50.994;7.126;2022-12-18T13:50:00;21.67;;;12.57;;
9117;SDS011;4594;50.994;7.126;2022-12-18T13:52:36;19.97;;;11.60;;
9117;SDS011;4594;50.994;7.126;2022-12-18T13:55:05;22.00;;;12.70;;
9117;SDS011;4594;50.994;7.126;2022-12-18T13:57:41;23.57;;;12.57;;
9117;SDS011;4594;50.994;7.126;2022-12-18T14:02:48;21.70;;;12.53;;
9117;SDS011;4594;50.994;7.126;2022-12-18T14:05:21;19.20;;;12.23;;
9117;SDS011;4594;50.994;7.126;2022-12-18T14:08:02;21.07;;;12.97;;
9117;SDS011;4594;50.994;7.126;2022-12-18T14:10:34;20.63;;;12.63;;
9117;SDS011;4594;50.994;7.126;2022-12-18T14:13:06;20.40;;;12.50;;
9117;SDS011;4594;50.994;7.126;2022-12-18T14:15:36;24.43;;;12.60;;
9117;SDS011;4594;50.994;7.126;2022-12-18T14:21:00;22.97;;;13.23;;
9117;SDS011;4594;50.994;7.126;2022-12-18T14:26:24;22.73;;;13.37;;
9117;SDS011;4594;50.994;7.126;2022-12-18T14:28:56;31.03;;;17.17;;
9117;SDS011;4594;50.994;7.126;2022-12-18T14:31:26;28.40;;;14.77;;
9117;SDS011;4594;50.994;7.126;2022-12-18T14:33:55;36.97;;;18.80;;
9117;SDS011;4594;50.994;7.126;2022-12-18T14:36:25;28.53;;;16.07;;
9117;SDS011;4594;50.994;7.126;2022-12-18T14:38:54;23.73;;;13.63;;
9117;SDS011;4594;50.994;7.126;2022-12-18T14:41:22;27.50;;;13.90;;
9117;SDS011;4594;50.994;7.126;2022-12-18T14:43:50;24.77;;;13.63;;
9117;SDS011;4594;50.994;7.126;2022-12-18T14:49:03;24.27;;;13.77;;
9117;SDS011;4594;50.994;7.126;2022-12-18T14:51:46;23.10;;;13.30;;
9117;SDS011;4594;50.994;7.126;2022-12-18T14:54:21;22.10;;;13.40;;
9117;SDS011;4594;50.994;7.126;2022-12-18T14:57:00;25.80;;;13.20;;
9117;SDS011;4594;50.994;7.126;2022-12-18T14:59:30;28.73;;;14.83;;
9117;SDS011;4594;50.994;7.126;2022-12-18T15:18:00;26.90;;;14.07;;
9117;SDS011;4594;50.994;7.126;2022-12-18T15:20:56;27.45;;;14.93;;
9117;SDS011;4594;50.994;7.126;2022-12-18T15:23:36;25.10;;;14.45;;
9117;SDS011;4594;50.994;7.126;2022-12-18T15:26:13;25.25;;;14.05;;
9117;SDS011;4594;50.994;7.126;2022-12-18T15:34:13;26.90;;;13.87;;
9117;SDS011;4594;50.994;7.126;2022-12-18T15:36:45;25.43;;;13.57;;
9117;SDS011;4594;50.994;7.126;2022-12-18T15:39:12;24.70;;;13.77;;
9117;SDS011;4594;50.994;7.126;2022-12-18T15:41:38;26.38;;;15.05;;
9117;SDS011;4594;50.994;7.126;2022-12-18T15:44:21;31.03;;;15.73;;
9117;SDS011;4594;50.994;7.126;2022-12-18T15:46:49;27.60;;;14.97;;
9117;SDS011;4594;50.994;7.126;2022-12-18T15:49:15;27.83;;;14.03;;
9117;SDS011;4594;50.994;7.126;2022-12-18T15:51:40;28.17;;;15.07;;
9117;SDS011;4594;50.994;7.126;2022-12-18T15:54:08;26.17;;;14.80;;
9117;SDS011;4594;50.994;7.126;2022-12-18T15:56:38;26.48;;;14.98;;
9117;SDS011;4594;50.994;7.126;2022-12-18T15:59:23;28.83;;;15.27;;
9117;SDS011;4594;50.994;7.126;2022-12-18T16:01:50;21.33;;;13.33;;
9117;SDS011;4594;50.994;7.126;2022-12-18T16:04:21;29.77;;;14.87;;
9117;SDS011;4594;50.994;7.126;2022-12-18T16:06:48;31.08;;;16.48;;
9117;SDS011;4594;50.994;7.126;2022-12-18T16:09:17;28.95;;;15.70;;
9117;SDS011;4594;50.994;7.126;2022-12-18T16:11:43;27.97;;;14.97;;
9117;SDS011;4594;50.994;7.126;2022-12-18T16:14:18;26.02;;;14.18;;
9117;SDS011;4594;50.994;7.126;2022-12-18T16:16:57;28.13;;;15.30;;
9117;SDS011;4594;50.994;7.126;2022-12-18T16:19:26;31.90;;;16.10;;
9117;SDS011;4594;50.994;7.126;2022-12-18T16:21:54;30.77;;;15.98;;
9117;SDS011;4594;50.994;7.126;2022-12-18T16:24:27;29.43;;;15.33;;
9117;SDS011;4594;50.994;7.126;2022-12-18T16:26:56;32.25;;;16.45;;
9117;SDS011;4594;50.994;7.126;2022-12-18T16:29:24;27.60;;;14.97;;
9117;SDS011;4594;50.994;7.126;2022-12-18T16:31:52;29.50;;;15.48;;
9117;SDS011;4594;50.994;7.126;2022-12-18T16:36:57;29.67;;;15.85;;
9117;SDS011;4594;50.994;7.126;2022-12-18T16:39:29;30.03;;;16.13;;
9117;SDS011;4594;50.994;7.126;2022-12-18T16:41:55;32.38;;;16.25;;
9117;SDS011;4594;50.994;7.126;2022-12-18T16:44:21;34.07;;;17.10;;
9117;SDS011;4594;50.994;7.126;2022-12-18T16:46:48;36.85;;;17.27;;
9117;SDS011;4594;50.994;7.126;2022-12-18T16:49:14;32.63;;;16.90;;
9117;SDS011;4594;50.994;7.126;2022-12-18T16:51:42;33.33;;;17.38;;
9117;SDS011;4594;50.994;7.126;2022-12-18T16:54:08;29.88;;;17.08;;
9117;SDS011;4594;50.994;7.126;2022-12-18T16:56:34;30.50;;;16.58;;
9117;SDS011;4594;50.994;7.126;2022-12-18T16:59:01;30.80;;;16.02;;
9117;SDS011;4594;50.994;7.126;2022-12-18T17:01:29;33.33;;;17.30;;
9117;SDS011;4594;50.994;7.126;2022-12-18T17:04:00;34.13;;;17.65;;
9117;SDS011;4594;50.994;7.126;2022-12-18T17:06:30;32.37;;;17.20;;
9117;SDS011;4594;50.994;7.126;2022-12-18T17:08:59;32.40;;;17.63;;
9117;SDS011;4594;50.994;7.126;2022-12-18T17:11:35;32.63;;;17.38;;
9117;SDS011;4594;50.994;7.126;2022-12-18T17:14:07;30.17;;;15.67;;
9117;SDS011;4594;50.994;7.126;2022-12-18T17:16:40;35.75;;;17.25;;
9117;SDS011;4594;50.994;7.126;2022-12-18T17:19:06;32.97;;;17.13;;
9117;SDS011;4594;50.994;7.126;2022-12-18T17:21:32;31.53;;;17.13;;
9117;SDS011;4594;50.994;7.126;2022-12-18T17:23:58;30.20;;;16.47;;
9117;SDS011;4594;50.994;7.126;2022-12-18T17:26:25;28.27;;;16.43;;
9117;SDS011;4594;50.994;7.126;2022-12-18T17:28:52;32.77;;;17.43;;
9117;SDS011;4594;50.994;7.126;2022-12-18T17:31:22;33.10;;;17.43;;
9117;SDS011;4594;50.994;7.126;2022-12-18T17:33:50;30.02;;;16.73;;
9117;SDS011;4594;50.994;7.126;2022-12-18T17:36:16;34.13;;;18.23;;
9117;SDS011;4594;50.994;7.126;2022-12-18T17:38:43;34.27;;;18.10;;
9117;SDS011;4594;50.994;7.126;2022-12-18T17:41:19;30.60;;;17.03;;
9117;SDS011;4594;50.994;7.126;2022-12-18T17:43:51;35.97;;;18.63;;
9117;SDS011;4594;50.994;7.126;2022-12-18T17:46:19;34.47;;;16.93;;